Tanana, Alaska
Current Conditions -  °F | °C
As of 12:52 AM on Wednesday 26 Nov 2014 (Local Time) from PATA Reporting Station
Clear Clear  
Wind Chill: -22°   Ceiling: Unl
Heat Index: -10°   Visibility: 10mi
Dew Point: -15°   Wind: 5mph
Humidity: 78%   Direction: 340°NNW
Pressure: 30.51"   Gusts: NA
Location:  65.18°N, 152.08°W
Report Text: PATA 260952Z AUTO 34004KT 10SM CLR M23/M26 A3051 RMK AO2 SLP341 T12331261 TSNO
Loading
Personal Weather Stations






























Interactive Weather Map New forecast layout! Learn more

10-Day Weather Forecast

Advertisements
Track Severe Weather on mobile